createdAt,value
2017-07-21T00:00:01.725Z,1008.67
2017-07-21T00:00:42.258Z,1008.69
2017-07-21T00:01:22.774Z,1008.68
2017-07-21T00:02:03.313Z,1008.68
2017-07-21T00:02:43.835Z,1008.67
2017-07-21T00:03:24.370Z,1008.66
2017-07-21T00:04:04.889Z,1008.69
2017-07-21T00:04:45.410Z,1008.62
2017-07-21T00:05:25.928Z,1008.69
2017-07-21T00:06:06.510Z,1008.72
2017-07-21T00:06:47.064Z,1008.75
2017-07-21T00:07:27.589Z,1008.7
2017-07-21T00:08:08.126Z,1008.74
2017-07-21T00:08:48.637Z,1008.72
2017-07-21T00:09:29.156Z,1008.7
2017-07-21T00:10:09.684Z,1008.73
2017-07-21T00:10:50.233Z,1008.76
2017-07-21T00:11:30.737Z,1008.76
2017-07-21T00:12:11.297Z,1008.78
2017-07-21T00:12:51.819Z,1008.74
2017-07-21T00:13:32.358Z,1008.77
2017-07-21T00:14:12.912Z,1008.79
2017-07-21T00:14:53.445Z,1008.8
2017-07-21T00:15:33.992Z,1008.78
2017-07-21T00:16:14.489Z,1008.79
2017-07-21T00:16:55.034Z,1008.82
2017-07-21T00:17:35.531Z,1008.81
2017-07-21T00:18:16.100Z,1008.81
2017-07-21T00:18:56.631Z,1008.84
2017-07-21T00:19:37.180Z,1008.8
2017-07-21T00:20:17.709Z,1008.81
2017-07-21T00:20:58.246Z,1008.81
2017-07-21T00:21:38.779Z,1008.81
2017-07-21T00:22:19.291Z,1008.81
2017-07-21T00:22:59.822Z,1008.81
2017-07-21T00:23:40.389Z,1008.77
2017-07-21T00:24:20.918Z,1008.81
2017-07-21T00:25:01.451Z,1008.78
2017-07-21T00:25:41.972Z,1008.77
2017-07-21T00:26:22.497Z,1008.76
2017-07-21T00:27:03.022Z,1008.76
2017-07-21T00:27:43.573Z,1008.77
2017-07-21T00:28:24.102Z,1008.74
2017-07-21T00:29:04.632Z,1008.77
2017-07-21T00:29:45.182Z,1008.76
2017-07-21T00:30:25.698Z,1008.75
2017-07-21T00:31:06.229Z,1008.74
2017-07-21T00:31:46.767Z,1008.76
2017-07-21T00:32:27.343Z,1008.79
2017-07-21T00:33:07.878Z,1008.74
2017-07-21T00:33:48.433Z,1008.78
2017-07-21T00:34:28.943Z,1008.83
2017-07-21T00:35:09.488Z,1008.78
2017-07-21T00:35:50.026Z,1008.84
2017-07-21T00:36:30.550Z,1008.86
2017-07-21T00:37:11.079Z,1008.86
2017-07-21T00:37:51.586Z,1008.88
2017-07-21T00:38:32.116Z,1008.86
2017-07-21T00:39:12.645Z,1008.87
2017-07-21T00:39:53.183Z,1008.87
2017-07-21T00:40:33.751Z,1008.88
2017-07-21T00:41:14.295Z,1008.9
2017-07-21T00:41:54.823Z,1008.9
2017-07-21T00:42:35.355Z,1008.89
2017-07-21T00:43:15.883Z,1008.93
2017-07-21T00:43:56.405Z,1008.94
2017-07-21T00:44:36.948Z,1008.92
2017-07-21T00:45:17.502Z,1008.92
2017-07-21T00:45:58.031Z,1008.94
2017-07-21T00:46:38.558Z,1008.96
2017-07-21T00:47:19.090Z,1008.96
2017-07-21T00:47:59.656Z,1008.98
2017-07-21T00:48:40.184Z,1008.99
2017-07-21T00:49:20.674Z,1008.99
2017-07-21T00:50:01.218Z,1009.02
2017-07-21T00:50:41.714Z,1008.98
2017-07-21T00:51:22.246Z,1008.95
2017-07-21T00:52:02.778Z,1008.97
2017-07-21T00:52:43.361Z,1008.97
2017-07-21T00:53:23.877Z,1008.98
2017-07-21T00:54:04.394Z,1009
2017-07-21T00:54:44.939Z,1008.95
2017-07-21T00:55:25.463Z,1008.96
2017-07-21T00:56:05.994Z,1008.97
2017-07-21T00:56:46.565Z,1009
2017-07-21T00:57:27.058Z,1009
2017-07-21T00:58:07.598Z,1009.04
2017-07-21T00:58:48.111Z,1008.99
2017-07-21T00:59:28.638Z,1009.03
2017-07-21T01:00:09.183Z,1009
2017-07-21T01:00:49.698Z,1009
2017-07-21T01:01:30.217Z,1009.03
2017-07-21T01:02:10.804Z,1009.01
2017-07-21T01:02:51.343Z,1009
2017-07-21T01:03:31.894Z,1009.01
2017-07-21T01:04:12.453Z,1008.99
2017-07-21T01:04:52.959Z,1008.99
2017-07-21T01:05:33.485Z,1009
2017-07-21T01:06:14.000Z,1009
2017-07-21T01:06:54.512Z,1008.96
2017-07-21T01:07:35.058Z,1008.99
2017-07-21T01:08:15.584Z,1009.02
2017-07-21T01:08:56.114Z,1009.03
2017-07-21T01:09:36.715Z,1009.04
2017-07-21T01:10:17.255Z,1009.03
2017-07-21T01:10:57.754Z,1009.02
2017-07-21T01:11:38.304Z,1009.02
2017-07-21T01:12:18.828Z,1009.01
2017-07-21T01:12:59.350Z,1009.01
2017-07-21T01:13:39.914Z,1009
2017-07-21T01:14:20.446Z,1009.02
2017-07-21T01:15:00.989Z,1008.99
2017-07-21T01:15:41.529Z,1008.99
2017-07-21T01:16:22.040Z,1009
2017-07-21T01:17:02.567Z,1008.97
2017-07-21T01:17:43.089Z,1008.99
2017-07-21T01:18:23.627Z,1008.99
2017-07-21T01:19:04.150Z,1009
2017-07-21T01:19:44.700Z,1009
2017-07-21T01:20:25.211Z,1008.97
2017-07-21T01:21:05.779Z,1008.98
2017-07-21T01:21:46.290Z,1008.94
2017-07-21T01:22:26.856Z,1008.96
2017-07-21T01:23:07.369Z,1008.96
2017-07-21T01:23:47.927Z,1008.97
2017-07-21T01:24:28.422Z,1008.98
2017-07-21T01:25:08.944Z,1008.98
2017-07-21T01:25:49.448Z,1009.01
2017-07-21T01:26:29.997Z,1009
2017-07-21T01:27:10.530Z,1009
2017-07-21T01:27:51.084Z,1008.98
2017-07-21T01:28:31.604Z,1008.97
2017-07-21T01:29:12.130Z,1008.94
2017-07-21T01:29:52.640Z,1008.96
2017-07-21T01:30:33.170Z,1008.95
2017-07-21T01:31:13.705Z,1008.95
2017-07-21T01:31:54.239Z,1008.94
2017-07-21T01:32:34.850Z,1008.96
2017-07-21T01:33:15.386Z,1008.94
2017-07-21T01:33:55.911Z,1008.91
2017-07-21T01:34:36.441Z,1008.93
2017-07-21T01:35:17.014Z,1008.94
2017-07-21T01:35:57.548Z,1008.9
2017-07-21T01:36:38.138Z,1008.94
2017-07-21T01:37:18.658Z,1008.92
2017-07-21T01:37:59.195Z,1008.95
2017-07-21T01:38:39.736Z,1008.91
2017-07-21T01:39:20.250Z,1008.91
2017-07-21T01:40:00.797Z,1008.92
2017-07-21T01:40:41.318Z,1008.93
2017-07-21T01:41:21.843Z,1008.94
2017-07-21T01:42:02.376Z,1008.92
2017-07-21T01:42:42.943Z,1008.9
2017-07-21T01:43:23.455Z,1008.92
2017-07-21T01:44:04.012Z,1008.9
2017-07-21T01:44:44.544Z,1008.92
2017-07-21T01:45:25.071Z,1008.92
2017-07-21T01:46:05.594Z,1008.93
2017-07-21T01:46:46.110Z,1008.87
2017-07-21T01:47:26.657Z,1008.9
2017-07-21T01:48:07.211Z,1008.88
2017-07-21T01:48:47.792Z,1008.86
2017-07-21T01:49:28.345Z,1008.86
2017-07-21T01:50:08.900Z,1008.81
2017-07-21T01:50:49.414Z,1008.85
2017-07-21T01:51:29.963Z,1008.86
2017-07-21T01:52:10.617Z,1008.86
2017-07-21T01:52:51.127Z,1008.85
2017-07-21T01:53:31.649Z,1008.86
2017-07-21T01:54:12.184Z,1008.84
2017-07-21T01:54:52.756Z,1008.86
2017-07-21T01:55:33.294Z,1008.88
2017-07-21T01:56:13.858Z,1008.89
2017-07-21T01:56:54.404Z,1008.9
2017-07-21T01:57:34.955Z,1008.9
2017-07-21T01:58:15.509Z,1008.88
2017-07-21T01:58:56.013Z,1008.9
2017-07-21T01:59:36.570Z,1008.9
2017-07-21T02:00:17.083Z,1008.89
2017-07-21T02:00:57.610Z,1008.9
2017-07-21T02:01:38.129Z,1008.88
2017-07-21T02:02:18.669Z,1008.87
2017-07-21T02:02:59.262Z,1008.87
2017-07-21T02:03:39.768Z,1008.88
2017-07-21T02:04:20.324Z,1008.88
2017-07-21T02:05:00.813Z,1008.87
2017-07-21T02:05:41.322Z,1008.85
2017-07-21T02:06:21.844Z,1008.87
2017-07-21T02:07:02.382Z,1008.87
2017-07-21T02:07:42.955Z,1008.86
2017-07-21T02:08:23.522Z,1008.89
2017-07-21T02:09:04.038Z,1008.82
2017-07-21T02:09:44.594Z,1008.83
2017-07-21T02:10:25.146Z,1008.8
2017-07-21T02:11:05.686Z,1008.82
2017-07-21T02:11:46.221Z,1008.84
2017-07-21T02:12:26.772Z,1008.85
2017-07-21T02:13:07.279Z,1008.83
2017-07-21T02:13:47.806Z,1008.85
2017-07-21T02:14:28.343Z,1008.85
2017-07-21T02:15:08.883Z,1008.83
2017-07-21T02:15:49.457Z,1008.82
2017-07-21T02:16:29.973Z,1008.81
2017-07-21T02:17:10.489Z,1008.76
2017-07-21T02:17:51.030Z,1008.76
2017-07-21T02:18:31.556Z,1008.77
2017-07-21T02:19:12.119Z,1008.75
2017-07-21T02:19:52.605Z,1008.74
2017-07-21T02:20:33.160Z,1008.74
2017-07-21T02:21:13.683Z,1008.74
2017-07-21T02:21:54.221Z,1008.71
2017-07-21T02:22:34.741Z,1008.73
2017-07-21T02:23:15.276Z,1008.73
2017-07-21T02:23:55.814Z,1008.74
2017-07-21T02:24:36.386Z,1008.78
2017-07-21T02:25:16.888Z,1008.77
2017-07-21T02:25:57.410Z,1008.78
2017-07-21T02:26:37.949Z,1008.76
2017-07-21T02:27:18.482Z,1008.76
2017-07-21T02:27:59.017Z,1008.74
2017-07-21T02:28:39.553Z,1008.76
2017-07-21T02:29:20.080Z,1008.78
2017-07-21T02:30:00.625Z,1008.78
2017-07-21T02:30:41.136Z,1008.76
2017-07-21T02:31:21.688Z,1008.74
2017-07-21T02:32:02.214Z,1008.78
2017-07-21T02:32:42.735Z,1008.8
2017-07-21T02:33:23.267Z,1008.8
2017-07-21T02:34:03.786Z,1008.8
2017-07-21T02:34:44.302Z,1008.79
2017-07-21T02:35:24.845Z,1008.77
2017-07-21T02:36:05.372Z,1008.78
2017-07-21T02:36:45.893Z,1008.76
2017-07-21T02:37:26.411Z,1008.78
2017-07-21T02:38:06.960Z,1008.77
2017-07-21T02:38:47.537Z,1008.75
2017-07-21T02:39:28.057Z,1008.76
2017-07-21T02:40:08.581Z,1008.81
2017-07-21T02:40:49.125Z,1008.77
2017-07-21T02:41:29.640Z,1008.77
2017-07-21T02:42:10.155Z,1008.8
2017-07-21T02:42:50.684Z,1008.78
2017-07-21T02:43:31.241Z,1008.76
2017-07-21T02:44:11.773Z,1008.75
2017-07-21T02:44:52.300Z,1008.77
2017-07-21T02:45:32.817Z,1008.81
2017-07-21T02:46:13.342Z,1008.82
2017-07-21T02:46:53.876Z,1008.81
2017-07-21T02:47:34.399Z,1008.85
2017-07-21T02:48:14.923Z,1008.83
2017-07-21T02:48:55.445Z,1008.83
2017-07-21T02:49:35.978Z,1008.82
2017-07-21T02:50:16.505Z,1008.8
2017-07-21T02:50:57.012Z,1008.84
2017-07-21T02:51:37.711Z,1008.88
2017-07-21T02:52:18.245Z,1008.89
2017-07-21T02:52:58.767Z,1008.82
2017-07-21T02:53:39.278Z,1008.86
2017-07-21T02:54:19.798Z,1008.85
2017-07-21T02:55:00.318Z,1008.85
2017-07-21T02:55:40.849Z,1008.84
2017-07-21T02:56:21.378Z,1008.82
2017-07-21T02:57:01.873Z,1008.85
2017-07-21T02:57:42.417Z,1008.85
2017-07-21T02:58:22.944Z,1008.85
2017-07-21T02:59:03.486Z,1008.86
2017-07-21T02:59:44.006Z,1008.81
2017-07-21T03:00:24.552Z,1008.84
2017-07-21T03:01:05.071Z,1008.86
2017-07-21T03:01:45.676Z,1008.87
2017-07-21T03:02:26.210Z,1008.83
2017-07-21T03:03:06.723Z,1008.86
2017-07-21T03:03:47.232Z,1008.91
2017-07-21T03:04:27.765Z,1008.87
2017-07-21T03:05:08.279Z,1008.87
2017-07-21T03:05:48.861Z,1008.87
2017-07-21T03:06:29.359Z,1008.85
2017-07-21T03:07:09.922Z,1008.82
2017-07-21T03:07:50.481Z,1008.85
2017-07-21T03:08:31.019Z,1008.86
2017-07-21T03:09:11.531Z,1008.82
2017-07-21T03:09:52.061Z,1008.85
2017-07-21T03:10:32.621Z,1008.83
2017-07-21T03:11:13.227Z,1008.82
2017-07-21T03:11:53.636Z,1008.84
2017-07-21T03:12:34.172Z,1008.85
2017-07-21T03:13:14.678Z,1008.84
2017-07-21T03:13:55.210Z,1008.87
2017-07-21T03:14:35.744Z,1008.88
2017-07-21T03:15:16.280Z,1008.86
2017-07-21T03:15:56.817Z,1008.85
2017-07-21T03:16:37.387Z,1008.88
2017-07-21T03:17:17.871Z,1008.88
2017-07-21T03:17:58.573Z,1008.89
2017-07-21T03:18:39.124Z,1008.86
2017-07-21T03:19:19.697Z,1008.88
2017-07-21T03:20:00.225Z,1008.89
2017-07-21T03:20:40.770Z,1008.91
2017-07-21T03:21:21.329Z,1008.96
2017-07-21T03:22:01.925Z,1008.94
2017-07-21T03:22:42.460Z,1008.95
2017-07-21T03:23:23.000Z,1008.94
2017-07-21T03:24:03.544Z,1008.96
2017-07-21T03:24:44.083Z,1008.95
2017-07-21T03:25:24.638Z,1008.96
2017-07-21T03:26:05.180Z,1008.95
2017-07-21T03:26:45.700Z,1008.97
2017-07-21T03:27:26.231Z,1008.95
2017-07-21T03:28:06.794Z,1008.97
2017-07-21T03:28:47.330Z,1008.98
2017-07-21T03:29:27.854Z,1008.96
2017-07-21T03:30:08.386Z,1008.97
2017-07-21T03:30:48.948Z,1008.97
2017-07-21T03:31:29.486Z,1008.97
2017-07-21T03:32:10.010Z,1008.96
2017-07-21T03:32:50.530Z,1008.95
2017-07-21T03:33:31.068Z,1008.95
2017-07-21T03:34:11.607Z,1008.98
2017-07-21T03:34:52.133Z,1008.98
2017-07-21T03:35:32.661Z,1008.95
2017-07-21T03:36:13.187Z,1008.96
2017-07-21T03:36:53.710Z,1009
2017-07-21T03:37:34.249Z,1009
2017-07-21T03:38:14.806Z,1008.97
2017-07-21T03:38:55.322Z,1009
2017-07-21T03:39:35.875Z,1008.99
2017-07-21T03:40:16.455Z,1008.96
2017-07-21T03:40:56.984Z,1009
2017-07-21T03:41:37.527Z,1008.98
2017-07-21T03:42:18.060Z,1009
2017-07-21T03:42:58.572Z,1009.04
2017-07-21T03:43:39.119Z,1009.04
2017-07-21T03:44:19.644Z,1009.09
2017-07-21T03:45:00.212Z,1009.07
2017-07-21T03:45:40.741Z,1009.07
2017-07-21T03:46:21.263Z,1009.08
2017-07-21T03:47:01.804Z,1009.06
2017-07-21T03:47:42.316Z,1009.07
2017-07-21T03:48:22.854Z,1009.08
2017-07-21T03:49:03.364Z,1009.12
2017-07-21T03:49:43.906Z,1009.11
2017-07-21T03:50:24.459Z,1009.15
2017-07-21T03:51:05.011Z,1009.12
2017-07-21T03:51:45.560Z,1009.12
2017-07-21T03:52:26.082Z,1009.14
2017-07-21T03:53:06.602Z,1009.11
2017-07-21T03:53:47.118Z,1009.12
2017-07-21T03:54:27.670Z,1009.14
2017-07-21T03:55:08.184Z,1009.11
2017-07-21T03:55:48.702Z,1009.15
2017-07-21T03:56:29.232Z,1009.15
2017-07-21T03:57:09.763Z,1009.17
2017-07-21T03:57:50.298Z,1009.18
2017-07-21T03:58:30.850Z,1009.16
2017-07-21T03:59:11.368Z,1009.18
2017-07-21T03:59:51.918Z,1009.22
2017-07-21T04:00:32.799Z,1009.21
2017-07-21T04:01:13.358Z,1009.21
2017-07-21T04:01:54.002Z,1009.24
2017-07-21T04:02:34.566Z,1009.22
2017-07-21T04:03:15.107Z,1009.22
2017-07-21T04:03:55.664Z,1009.22
2017-07-21T04:04:36.308Z,1009.23
2017-07-21T04:05:16.771Z,1009.18
2017-07-21T04:05:57.444Z,1009.19
2017-07-21T04:06:37.972Z,1009.2
2017-07-21T04:07:18.561Z,1009.21
2017-07-21T04:07:59.001Z,1009.24
2017-07-21T04:08:39.541Z,1009.21
2017-07-21T04:09:20.063Z,1009.25
2017-07-21T04:10:00.653Z,1009.23
2017-07-21T04:10:41.182Z,1009.23
2017-07-21T04:11:21.720Z,1009.24
2017-07-21T04:12:02.325Z,1009.26
2017-07-21T04:12:42.787Z,1009.26
2017-07-21T04:13:23.326Z,1009.26
2017-07-21T04:14:03.868Z,1009.24
2017-07-21T04:14:44.371Z,1009.28
2017-07-21T04:15:24.901Z,1009.27
2017-07-21T04:16:05.424Z,1009.29
2017-07-21T04:16:45.967Z,1009.28
2017-07-21T04:17:26.465Z,1009.25
2017-07-21T04:18:07.080Z,1009.27
2017-07-21T04:18:47.619Z,1009.33
2017-07-21T04:19:28.162Z,1009.32
2017-07-21T04:20:08.702Z,1009.33
2017-07-21T04:20:49.528Z,1009.33
2017-07-21T04:21:29.939Z,1009.31
2017-07-21T04:22:10.482Z,1009.33
2017-07-21T04:22:51.065Z,1009.3
2017-07-21T04:23:31.586Z,1009.27
2017-07-21T04:24:12.160Z,1009.31
2017-07-21T04:24:52.622Z,1009.28
2017-07-21T04:25:33.187Z,1009.31
2017-07-21T04:26:13.839Z,1009.28
2017-07-21T04:26:54.473Z,1009.33
2017-07-21T04:27:34.997Z,1009.31
2017-07-21T04:28:15.542Z,1009.28
2017-07-21T04:28:56.035Z,1009.29
2017-07-21T04:29:36.562Z,1009.26
2017-07-21T04:30:17.087Z,1009.28
2017-07-21T04:30:57.548Z,1009.32
2017-07-21T04:31:38.099Z,1009.29
2017-07-21T04:32:18.585Z,1009.3
2017-07-21T04:32:59.110Z,1009.37
2017-07-21T04:33:39.617Z,1009.35
2017-07-21T04:34:20.387Z,1009.4
2017-07-21T04:35:00.912Z,1009.38
2017-07-21T04:35:41.437Z,1009.4
2017-07-21T04:36:21.986Z,1009.4
2017-07-21T04:37:02.474Z,1009.4
2017-07-21T04:37:43.073Z,1009.41
2017-07-21T04:38:23.543Z,1009.39
2017-07-21T04:39:04.053Z,1009.42
2017-07-21T04:39:44.579Z,1009.4
2017-07-21T04:40:25.112Z,1009.43
2017-07-21T04:41:05.640Z,1009.41
2017-07-21T04:41:46.179Z,1009.46
2017-07-21T04:42:26.728Z,1009.45
2017-07-21T04:43:07.200Z,1009.41
2017-07-21T04:43:47.749Z,1009.43
2017-07-21T04:44:28.276Z,1009.42
2017-07-21T04:45:08.815Z,1009.41
2017-07-21T04:45:49.378Z,1009.39
2017-07-21T04:46:29.899Z,1009.4
2017-07-21T04:47:10.421Z,1009.43
2017-07-21T04:47:50.952Z,1009.42
2017-07-21T04:48:31.469Z,1009.44
2017-07-21T04:49:11.984Z,1009.42
2017-07-21T04:49:52.536Z,1009.45
2017-07-21T04:50:33.054Z,1009.47
2017-07-21T04:51:13.597Z,1009.5
2017-07-21T04:51:54.140Z,1009.46
2017-07-21T04:52:34.688Z,1009.49
2017-07-21T04:53:15.217Z,1009.44
2017-07-21T04:53:55.754Z,1009.41
2017-07-21T04:54:36.566Z,1009.45
2017-07-21T04:55:17.106Z,1009.41
2017-07-21T04:55:57.634Z,1009.4
2017-07-21T04:56:38.231Z,1009.38
2017-07-21T04:57:18.755Z,1009.41
2017-07-21T04:57:59.311Z,1009.41
2017-07-21T04:58:39.847Z,1009.43
2017-07-21T04:59:20.379Z,1009.41
2017-07-21T05:00:00.897Z,1009.41
2017-07-21T05:00:41.430Z,1009.41
2017-07-21T05:01:21.962Z,1009.41
2017-07-21T05:02:02.531Z,1009.39
2017-07-21T05:02:43.073Z,1009.39
2017-07-21T05:03:23.623Z,1009.39
2017-07-21T05:04:04.151Z,1009.37
2017-07-21T05:04:44.659Z,1009.37
2017-07-21T05:05:25.222Z,1009.38
2017-07-21T05:06:05.745Z,1009.37
2017-07-21T05:06:46.285Z,1009.39
2017-07-21T05:07:26.823Z,1009.36
2017-07-21T05:08:07.429Z,1009.37
2017-07-21T05:08:47.919Z,1009.41
2017-07-21T05:09:28.448Z,1009.39
2017-07-21T05:10:09.001Z,1009.38
2017-07-21T05:10:49.524Z,1009.46
2017-07-21T05:11:30.286Z,1009.4
2017-07-21T05:12:10.949Z,1009.42
2017-07-21T05:12:51.467Z,1009.4
2017-07-21T05:13:31.973Z,1009.4
2017-07-21T05:14:12.526Z,1009.39
2017-07-21T05:14:53.100Z,1009.4
2017-07-21T05:15:33.661Z,1009.38
2017-07-21T05:16:14.184Z,1009.39
2017-07-21T05:16:54.689Z,1009.38
2017-07-21T05:17:35.214Z,1009.39
2017-07-21T05:18:15.728Z,1009.34
2017-07-21T05:18:56.231Z,1009.35
2017-07-21T05:19:36.801Z,1009.33
2017-07-21T05:20:17.443Z,1009.32
2017-07-21T05:20:58.016Z,1009.31
2017-07-21T05:21:38.691Z,1009.32
2017-07-21T05:22:19.231Z,1009.28
2017-07-21T05:22:59.727Z,1009.34
2017-07-21T05:23:40.245Z,1009.32
2017-07-21T05:24:20.778Z,1009.3
2017-07-21T05:25:01.298Z,1009.31
2017-07-21T05:25:41.841Z,1009.33
2017-07-21T05:26:22.326Z,1009.31
2017-07-21T05:27:03.013Z,1009.3
2017-07-21T05:27:43.681Z,1009.3
2017-07-21T05:28:24.215Z,1009.27
2017-07-21T05:29:04.740Z,1009.26
2017-07-21T05:29:45.252Z,1009.28
2017-07-21T05:30:25.750Z,1009.27
2017-07-21T05:31:06.408Z,1009.28
2017-07-21T05:31:46.922Z,1009.26
2017-07-21T05:32:27.483Z,1009.29
2017-07-21T05:33:08.015Z,1009.25
2017-07-21T05:33:48.554Z,1009.27
2017-07-21T05:34:29.112Z,1009.25
2017-07-21T05:35:09.640Z,1009.24
2017-07-21T05:35:50.159Z,1009.26
2017-07-21T05:36:30.702Z,1009.24
2017-07-21T05:37:11.284Z,1009.21
2017-07-21T05:37:51.912Z,1009.18
2017-07-21T05:38:32.448Z,1009.19
2017-07-21T05:39:12.971Z,1009.22
2017-07-21T05:39:53.467Z,1009.2
2017-07-21T05:40:34.013Z,1009.22
2017-07-21T05:41:14.558Z,1009.17
2017-07-21T05:41:55.163Z,1009.19
2017-07-21T05:42:35.664Z,1009.22
2017-07-21T05:43:16.328Z,1009.25
2017-07-21T05:43:56.873Z,1009.2
2017-07-21T05:44:37.404Z,1009.25
2017-07-21T05:45:17.942Z,1009.21
2017-07-21T05:45:58.486Z,1009.23
2017-07-21T05:46:39.021Z,1009.25
2017-07-21T05:47:19.558Z,1009.23
2017-07-21T05:48:00.048Z,1009.26
2017-07-21T05:48:40.628Z,1009.23
2017-07-21T05:49:21.184Z,1009.27
2017-07-21T05:50:01.740Z,1009.26
2017-07-21T05:50:42.317Z,1009.23
2017-07-21T05:51:22.840Z,1009.24
2017-07-21T05:52:03.371Z,1009.24
2017-07-21T05:52:43.896Z,1009.21
2017-07-21T05:53:24.466Z,1009.23
2017-07-21T05:54:04.984Z,1009.25
2017-07-21T05:54:45.503Z,1009.21
2017-07-21T05:55:26.059Z,1009.24
2017-07-21T05:56:06.573Z,1009.24
2017-07-21T05:56:47.164Z,1009.26
2017-07-21T05:57:27.786Z,1009.25
2017-07-21T05:58:08.334Z,1009.25
2017-07-21T05:58:49.129Z,1009.26
2017-07-21T05:59:29.746Z,1009.27
2017-07-21T06:00:10.242Z,1009.26
2017-07-21T06:00:50.800Z,1009.28
2017-07-21T06:01:31.364Z,1009.28
2017-07-21T06:02:11.871Z,1009.28
2017-07-21T06:02:52.424Z,1009.32
2017-07-21T06:03:32.936Z,1009.31
2017-07-21T06:04:13.813Z,1009.31
2017-07-21T06:04:54.591Z,1009.31
2017-07-21T06:05:35.153Z,1009.3
2017-07-21T06:06:15.709Z,1009.31
2017-07-21T06:06:56.284Z,1009.3
2017-07-21T06:07:36.819Z,1009.33
2017-07-21T06:08:17.333Z,1009.33
2017-07-21T06:08:57.899Z,1009.31
2017-07-21T06:09:38.428Z,1009.33
2017-07-21T06:10:19.010Z,1009.34
2017-07-21T06:10:59.487Z,1009.36
2017-07-21T06:11:40.002Z,1009.37
2017-07-21T06:12:20.559Z,1009.35
2017-07-21T06:13:01.046Z,1009.4
2017-07-21T06:13:41.865Z,1009.33
2017-07-21T06:14:22.719Z,1009.32
2017-07-21T06:15:03.157Z,1009.35
2017-07-21T06:15:43.692Z,1009.33
2017-07-21T06:16:24.195Z,1009.32
2017-07-21T06:17:05.554Z,1009.32
2017-07-21T06:17:46.050Z,1009.36
2017-07-21T06:18:26.563Z,1009.33
2017-07-21T06:19:07.070Z,1009.31
2017-07-21T06:19:47.602Z,1009.31
2017-07-21T06:20:28.155Z,1009.35
2017-07-21T06:21:08.640Z,1009.32
2017-07-21T06:21:49.180Z,1009.33
2017-07-21T06:22:29.736Z,1009.35
2017-07-21T06:23:10.244Z,1009.36
2017-07-21T06:23:50.756Z,1009.38
2017-07-21T06:24:31.365Z,1009.32
2017-07-21T06:25:11.863Z,1009.3
2017-07-21T06:25:52.357Z,1009.35
2017-07-21T06:26:32.863Z,1009.33
2017-07-21T06:27:13.462Z,1009.34
2017-07-21T06:27:53.970Z,1009.33
2017-07-21T06:28:34.484Z,1009.33
2017-07-21T06:29:15.012Z,1009.35
2017-07-21T06:29:55.562Z,1009.39
2017-07-21T06:30:36.080Z,1009.37
2017-07-21T06:31:16.654Z,1009.35
2017-07-21T06:31:57.208Z,1009.39
2017-07-21T06:32:37.734Z,1009.37
2017-07-21T06:33:18.274Z,1009.35
2017-07-21T06:33:58.802Z,1009.37
2017-07-21T06:34:42.588Z,1009.39
2017-07-21T06:35:23.117Z,1009.38
2017-07-21T06:36:03.621Z,1009.34
2017-07-21T06:36:44.157Z,1009.34
2017-07-21T06:37:24.887Z,1009.35
2017-07-21T06:38:05.754Z,1009.37
2017-07-21T06:38:46.302Z,1009.38
2017-07-21T06:39:27.005Z,1009.38
2017-07-21T06:40:07.567Z,1009.37
2017-07-21T06:40:48.423Z,1009.37
2017-07-21T06:41:29.383Z,1009.35
2017-07-21T06:42:10.370Z,1009.3
2017-07-21T06:42:50.911Z,1009.29
2017-07-21T06:43:31.562Z,1009.31
2017-07-21T06:44:12.078Z,1009.33
2017-07-21T06:44:52.802Z,1009.32
2017-07-21T06:45:33.344Z,1009.31
2017-07-21T06:46:13.885Z,1009.31
2017-07-21T06:46:54.432Z,1009.29
2017-07-21T06:47:34.954Z,1009.29
2017-07-21T06:48:15.559Z,1009.27
2017-07-21T06:48:56.116Z,1009.25
2017-07-21T06:49:36.665Z,1009.3
2017-07-21T06:50:17.214Z,1009.28
2017-07-21T06:50:58.074Z,1009.29
2017-07-21T06:51:38.570Z,1009.24
2017-07-21T06:52:19.114Z,1009.26
2017-07-21T06:53:00.902Z,1009.31
2017-07-21T06:53:42.097Z,1009.32
2017-07-21T06:54:23.555Z,1009.25
2017-07-21T06:55:04.440Z,1009.32
2017-07-21T06:55:46.184Z,1009.29
2017-07-21T06:56:26.688Z,1009.29
2017-07-21T06:57:07.247Z,1009.3
2017-07-21T06:57:48.122Z,1009.34
2017-07-21T06:58:28.711Z,1009.29
2017-07-21T06:59:09.432Z,1009.3
2017-07-21T06:59:49.902Z,1009.29
2017-07-21T07:00:30.433Z,1009.33
2017-07-21T07:01:10.975Z,1009.33
2017-07-21T07:01:51.518Z,1009.33
2017-07-21T07:02:32.126Z,1009.35
2017-07-21T07:03:12.946Z,1009.34
2017-07-21T07:03:53.543Z,1009.34
2017-07-21T07:04:34.102Z,1009.34
2017-07-21T07:05:14.737Z,1009.36
2017-07-21T07:05:55.288Z,1009.34
2017-07-21T07:06:35.827Z,1009.36
2017-07-21T07:07:16.357Z,1009.35
2017-07-21T07:07:57.147Z,1009.32
2017-07-21T07:08:37.763Z,1009.38
2017-07-21T07:09:18.352Z,1009.37
2017-07-21T07:09:58.993Z,1009.39
2017-07-21T07:10:39.718Z,1009.38
2017-07-21T07:11:20.254Z,1009.41
2017-07-21T07:12:00.792Z,1009.42
2017-07-21T07:12:41.817Z,1009.39
2017-07-21T07:13:22.505Z,1009.43
2017-07-21T07:14:03.481Z,1009.4
2017-07-21T07:14:44.160Z,1009.4
2017-07-21T07:15:24.691Z,1009.4
2017-07-21T07:16:05.437Z,1009.44
2017-07-21T07:16:46.213Z,1009.46
2017-07-21T07:17:27.161Z,1009.45
2017-07-21T07:18:07.932Z,1009.45
2017-07-21T07:18:48.487Z,1009.46
2017-07-21T07:19:29.339Z,1009.39
2017-07-21T07:20:10.052Z,1009.43
2017-07-21T07:21:01.348Z,1009.41
2017-07-21T07:21:44.512Z,1009.41
2017-07-21T07:22:26.638Z,1009.41
2017-07-21T07:23:07.185Z,1009.44
2017-07-21T07:23:47.922Z,1009.45
2017-07-21T07:24:28.472Z,1009.42
2017-07-21T07:25:10.264Z,1009.43
2017-07-21T07:25:50.824Z,1009.43
2017-07-21T07:26:31.373Z,1009.46
2017-07-21T07:27:12.057Z,1009.43
2017-07-21T07:27:52.892Z,1009.46
2017-07-21T07:28:33.713Z,1009.47
2017-07-21T07:29:14.325Z,1009.43
2017-07-21T07:29:54.931Z,1009.46
2017-07-21T07:30:35.465Z,1009.44
2017-07-21T07:31:16.119Z,1009.43
2017-07-21T07:31:57.008Z,1009.41
2017-07-21T07:32:37.588Z,1009.37
2017-07-21T07:33:18.114Z,1009.4
2017-07-21T07:33:58.654Z,1009.36
2017-07-21T07:34:39.405Z,1009.38
2017-07-21T07:35:20.037Z,1009.38
2017-07-21T07:36:00.579Z,1009.39
2017-07-21T07:36:41.182Z,1009.35
2017-07-21T07:37:21.997Z,1009.4
2017-07-21T07:38:02.644Z,1009.41
2017-07-21T07:38:43.197Z,1009.41
2017-07-21T07:39:23.843Z,1009.37
2017-07-21T07:40:04.413Z,1009.33
2017-07-21T07:40:44.954Z,1009.37
2017-07-21T07:41:25.483Z,1009.35
2017-07-21T07:42:06.023Z,1009.36
2017-07-21T07:42:46.562Z,1009.35
2017-07-21T07:43:27.113Z,1009.31
2017-07-21T07:44:07.642Z,1009.34
2017-07-21T07:44:48.202Z,1009.36
2017-07-21T07:45:28.723Z,1009.35
2017-07-21T07:46:09.338Z,1009.34
2017-07-21T07:46:49.881Z,1009.32
2017-07-21T07:47:30.433Z,1009.33
2017-07-21T07:48:10.974Z,1009.31
2017-07-21T07:48:51.524Z,1009.31
2017-07-21T07:49:32.062Z,1009.31
2017-07-21T07:50:12.628Z,1009.28
2017-07-21T07:50:53.242Z,1009.25
2017-07-21T07:51:33.788Z,1009.27
2017-07-21T07:52:14.334Z,1009.27
2017-07-21T07:52:54.867Z,1009.3
2017-07-21T07:53:35.425Z,1009.29
2017-07-21T07:54:15.992Z,1009.28
2017-07-21T07:54:56.502Z,1009.3
2017-07-21T07:55:37.035Z,1009.29
2017-07-21T07:56:17.584Z,1009.3
2017-07-21T07:56:58.112Z,1009.29
2017-07-21T07:57:38.681Z,1009.3
2017-07-21T07:58:19.212Z,1009.3
2017-07-21T07:58:59.754Z,1009.32
2017-07-21T07:59:40.298Z,1009.28
2017-07-21T08:00:20.866Z,1009.28
2017-07-21T08:01:01.414Z,1009.26
2017-07-21T08:01:41.947Z,1009.26
2017-07-21T08:02:22.479Z,1009.23
2017-07-21T08:03:03.016Z,1009.24
2017-07-21T08:03:43.585Z,1009.16
2017-07-21T08:04:24.110Z,1009.19
2017-07-21T08:05:04.646Z,1009.15
2017-07-21T08:05:45.251Z,1009.13
2017-07-21T08:06:25.802Z,1009.12
2017-07-21T08:07:06.332Z,1009.15
2017-07-21T08:07:46.902Z,1009.14
2017-07-21T08:08:27.430Z,1009.15
2017-07-21T08:09:08.007Z,1009.14
2017-07-21T08:09:48.532Z,1009.14
2017-07-21T08:10:29.143Z,1009.12
2017-07-21T08:11:09.683Z,1009.13
2017-07-21T08:11:50.230Z,1009.14
2017-07-21T08:12:30.753Z,1009.13
2017-07-21T08:13:11.294Z,1009.14